Decoded Metar for KCDC (CEDAR CITY in UT, USA) (IATA:CDC) | Meteo·Mobile Aviation Weather
aviador You're here:

KCDC Decoded Metar

CEDAR CITY in UT, USA
Report Time2019-01-20 10:53:00
UTC Time2019-01-20 11:59:57
Flight Rules Old
Wind120° at 04 kt
W.Decomp.*RWY 08: 3.6 kt HW 1.8 kt RCW
RWY 02: 0.3 kt HW 4.0 kt RCW
W.Rank120° ranks 22
Current wind is below 120° avg. (6.0)
Visibility9999 m
Phenomena:N/A
Clouds:N/A
Expected CloudBase > 800 ft AGL from Temp-Dew spread
CeilingNone
Temp-2°C (ISA -6)
Dew Point-4°C (86% RH)
AAT-5.9°C
QNH1024 hPa
Density Alt4,623 ft
Elevation5,623 ft
Report Wrong Elevation
Raw Report
KCDC 201053Z AUTO 12004KT 10SM CLR M02/M04 A3023 RMK AO2 SLP227
T10171039=

Extra information for KCDC:More info

Metar Taf Metar & Taf Last 4 Metars F.Rules Stats Wind Profile Meteogram Temp Stats Airport Information Weather charts Add Link Nearby VenuesMetar ALERT Operation Metar Decoded Social comments

AIRNAV info for KCDC